Time;durP1;ratioP1;P1;durP2;ratioP2;P2;SDS_P1;SDS_P2;PMS_P1;PMS_P2;Temp;Humidity;BMP_temperature;BMP_pressure;BME280_temperature;BME280_humidity;BME280_pressure;Samples;Min_cycle;Max_cycle;Signal;HPM_P1;HPM_P2
2023/12/30 00:01:53;;;;;;;54.00;32.20;;;;;;;-2.11;100.00;97547.20;110314;1242;71243;-74
2023/12/30 00:04:23;;;;;;;;;;;;;;;-2.13;100.00;97548.10;110377;1243;68332;-75
2023/12/30 00:06:53;;;;;;;41.30;27.10;;;;;;;-2.18;100.00;97539.82;110369;1241;69093;-74
2023/12/30 00:09:23;;;;;;;40.10;27.20;;;;;;;-2.21;100.00;97543.65;110338;1241;59729;-75
2023/12/30 00:11:54;;;;;;;44.20;29.60;;;;;;;-2.25;100.00;97541.00;110185;1242;59723;-75
2023/12/30 00:14:24;;;;;;;35.30;23.60;;;;;;;-2.27;100.00;97541.55;110357;1248;71380;-74
2023/12/30 00:16:55;;;;;;;39.10;21.40;;;;;;;-2.29;100.00;97540.05;110382;1242;69234;-75
2023/12/30 00:19:25;;;;;;;33.10;23.00;;;;;;;-2.32;100.00;97539.41;110357;1242;69205;-75
2023/12/30 00:21:56;;;;;;;33.30;22.70;;;;;;;-2.33;100.00;97549.85;110404;1241;59675;-75
2023/12/30 00:24:27;;;;;;;38.40;25.50;;;;;;;-2.33;100.00;97558.73;110382;1241;60116;-75
2023/12/30 00:26:56;;;;;;;36.20;23.60;;;;;;;-2.33;100.00;97556.86;110334;1243;71426;-75
2023/12/30 00:29:26;;;;;;;72.30;39.10;;;;;;;-2.33;100.00;97558.73;110325;1241;69129;-75
2023/12/30 00:31:57;;;;;;;78.50;42.80;;;;;;;-2.31;100.00;97558.19;110419;1242;68373;-75
2023/12/30 00:34:27;;;;;;;48.70;29.20;;;;;;;-2.31;100.00;97563.99;110341;1245;60044;-75
2023/12/30 00:36:57;;;;;;;;;;;;;;;-2.31;100.00;97564.17;110348;1242;59728;-74
2023/12/30 00:39:27;;;;;;;34.20;21.50;;;;;;;-2.32;100.00;97563.16;110348;1242;71220;-75
2023/12/30 00:41:56;;;;;;;32.60;21.30;;;;;;;-2.35;100.00;97564.75;110387;1242;69780;-75
2023/12/30 00:44:26;;;;;;;39.00;22.70;;;;;;;-2.37;100.00;97568.55;110359;1242;69690;-75
2023/12/30 00:46:57;;;;;;;34.90;22.70;;;;;;;-2.41;100.00;97566.05;110383;1248;59759;-74
2023/12/30 00:49:27;;;;;;;36.60;23.80;;;;;;;-2.42;100.00;97570.67;110342;1242;59631;-75
2023/12/30 00:51:57;;;;;;;36.10;23.60;;;;;;;-2.41;100.00;97575.27;110484;1241;70504;-74
2023/12/30 00:54:29;;;;;;;41.20;27.60;;;;;;;-2.40;100.00;97574.59;110312;1249;69622;-74
2023/12/30 00:57:09;;;;;;;42.70;27.60;;;;;;;-2.42;100.00;97574.80;110206;1242;69649;-74
2023/12/30 00:59:40;;;;;;;53.40;35.20;;;;;;;-2.46;100.00;97577.41;110373;1242;59753;-74
2023/12/30 01:02:11;;;;;;;44.70;27.60;;;;;;;-2.51;100.00;97579.05;110347;1242;59669;-75
2023/12/30 01:04:42;;;;;;;46.40;29.20;;;;;;;-2.54;100.00;97580.98;110330;1242;71423;-75
2023/12/30 01:07:14;;;;;;;47.00;28.90;;;;;;;-2.56;100.00;97582.54;110357;1242;69293;-75
2023/12/30 01:09:45;;;;;;;46.70;27.70;;;;;;;-2.59;100.00;97582.43;110319;1242;69604;-75
2023/12/30 01:12:15;;;;;;;39.50;23.80;;;;;;;-2.61;100.00;97582.13;110211;1243;59684;-75
2023/12/30 01:14:45;;;;;;;35.70;24.90;;;;;;;-2.63;100.00;97579.59;110225;1242;59740;-75
2023/12/30 01:17:16;;;;;;;43.60;27.20;;;;;;;-2.61;100.00;97578.89;110389;1242;71440;-74
2023/12/30 01:19:47;;;;;;;45.50;26.90;;;;;;;-2.66;100.00;97579.47;110392;1241;68507;-75
2023/12/30 01:22:19;;;;;;;43.80;27.00;;;;;;;-2.69;100.00;97572.36;110378;1241;69186;-75
2023/12/30 01:24:50;;;;;;;41.50;25.90;;;;;;;-2.71;100.00;97573.27;110439;1240;59701;-75
2023/12/30 01:27:20;;;;;;;46.50;29.60;;;;;;;-2.73;100.00;97569.36;110579;1241;59766;-76
2023/12/30 01:29:53;;;;;;;50.10;33.20;;;;;;;-2.75;100.00;97567.36;110394;1249;71421;-76
2023/12/30 01:32:26;;;;;;;51.10;36.90;;;;;;;-2.77;100.00;97564.48;110391;1242;69403;-76
2023/12/30 01:35:01;;;;;;;59.20;38.50;;;;;;;-2.81;100.00;97561.98;110382;1244;69312;-75
2023/12/30 01:37:36;;;;;;;59.40;41.20;;;;;;;-2.86;100.00;97562.77;110483;1241;59737;-75
2023/12/30 01:40:10;;;;;;;68.80;42.00;;;;;;;-2.95;100.00;97554.56;110272;1242;59717;-76
2023/12/30 01:42:43;;;;;;;87.70;50.90;;;;;;;-3.00;100.00;97555.16;110422;1243;71426;-76
2023/12/30 01:45:14;;;;;;;73.80;40.60;;;;;;;-3.06;100.00;97551.52;110360;1248;68089;-76
2023/12/30 01:47:45;;;;;;;80.60;49.70;;;;;;;-3.08;100.00;97549.48;110312;1242;68525;-76
2023/12/30 01:50:23;;;;;;;74.60;45.20;;;;;;;-3.09;100.00;97548.99;110278;1242;59776;-76
2023/12/30 01:52:56;;;;;;;71.80;43.50;;;;;;;-3.16;100.00;97547.06;110323;1240;59667;-77
2023/12/30 01:55:28;;;;;;;69.50;39.70;;;;;;;-3.20;100.00;97545.59;110181;1249;71408;-76
2023/12/30 01:58:01;;;;;;;58.10;36.40;;;;;;;-3.22;100.00;97543.59;110316;1242;69100;-76
2023/12/30 02:00:34;;;;;;;52.20;32.30;;;;;;;-3.23;100.00;97542.41;110392;1245;69243;-76
2023/12/30 02:03:07;;;;;;;69.40;38.60;;;;;;;-3.25;100.00;97539.53;110335;1242;59641;-76
2023/12/30 02:05:39;;;;;;;70.10;42.70;;;;;;;-3.26;100.00;97535.98;110337;1242;59737;-76
2023/12/30 02:08:12;;;;;;;61.00;36.30;;;;;;;-3.28;100.00;97533.80;110191;1240;70674;-76
2023/12/30 02:10:44;;;;;;;59.50;33.80;;;;;;;-3.27;100.00;97534.12;110369;1242;69229;-76
2023/12/30 02:13:15;;;;;;;47.00;29.30;;;;;;;-3.24;100.00;97532.88;110278;1241;69297;-76
2023/12/30 02:15:51;;;;;;;44.50;28.50;;;;;;;-3.21;100.00;97530.95;110340;1243;60069;-76
2023/12/30 02:18:29;;;;;;;49.00;29.40;;;;;;;-3.19;100.00;97532.28;110247;1245;59684;-76
2023/12/30 02:21:01;;;;;;;47.40;32.60;;;;;;;-3.20;100.00;97532.30;110341;1242;70379;-74
2023/12/30 02:23:33;;;;;;;45.00;30.60;;;;;;;-3.23;100.00;97532.17;110375;1241;69310;-76
2023/12/30 02:26:10;;;;;;;46.50;27.00;;;;;;;-3.26;100.00;97534.77;110448;1242;68621;-76
2023/12/30 02:28:42;;;;;;;50.80;31.10;;;;;;;-3.28;100.00;97536.36;110443;1242;59666;-74
2023/12/30 02:31:13;;;;;;;;;;;;;;;-3.29;100.00;97532.63;110483;1242;59743;-75
2023/12/30 02:33:47;;;;;;;62.60;36.40;;;;;;;-3.34;100.00;97531.34;110478;1242;71417;-75
2023/12/30 02:36:21;;;;;;;61.30;37.80;;;;;;;-3.39;100.00;97526.30;110458;1244;68474;-75
2023/12/30 02:38:53;;;;;;;79.00;46.30;;;;;;;-3.41;100.00;97525.83;110243;1242;68130;-76
2023/12/30 02:41:24;;;;;;;81.30;46.40;;;;;;;-3.42;100.00;97527.88;110402;1244;59714;-75
2023/12/30 02:44:03;;;;;;;66.70;37.90;;;;;;;-3.47;100.00;97529.65;110497;1241;59679;-75
2023/12/30 02:46:34;;;;;;;61.60;34.00;;;;;;;-3.49;100.00;97527.65;110451;1244;71394;-74
2023/12/30 02:49:06;;;;;;;55.70;33.80;;;;;;;-3.49;100.00;97521.17;110211;1243;69234;-74
2023/12/30 02:51:39;;;;;;;58.00;36.80;;;;;;;-3.49;100.00;97519.13;110167;1244;69501;-75
2023/12/30 02:54:12;;;;;;;53.20;29.90;;;;;;;-3.49;100.00;97519.46;110213;1242;59738;-75
2023/12/30 02:56:43;;;;;;;63.60;37.50;;;;;;;-3.48;100.00;97517.56;110359;1243;59630;-74
2023/12/30 02:59:19;;;;;;;58.10;35.40;;;;;;;-3.46;100.00;97519.44;110215;1242;71471;-74
2023/12/30 03:01:52;;;;;;;51.90;31.20;;;;;;;-3.46;100.00;97519.59;110339;1242;68356;-74
2023/12/30 03:04:24;;;;;;;52.30;29.60;;;;;;;-3.45;100.00;97519.23;110336;1244;68511;-75
2023/12/30 03:06:57;;;;;;;47.40;27.60;;;;;;;-3.43;100.00;97512.55;110388;1242;59725;-75
2023/12/30 03:09:33;;;;;;;43.50;24.10;;;;;;;-3.43;100.00;97512.88;110419;1242;59693;-73
2023/12/30 03:12:05;;;;;;;45.20;26.20;;;;;;;-3.43;100.00;97516.48;110355;1241;70453;-75
2023/12/30 03:14:37;;;;;;;44.50;28.00;;;;;;;-3.43;100.00;97521.76;110475;1242;69415;-77
2023/12/30 03:17:08;;;;;;;46.10;28.40;;;;;;;-3.43;100.00;97521.92;110231;1241;68361;-75
2023/12/30 03:19:41;;;;;;;50.30;28.90;;;;;;;-3.43;100.00;97519.04;110408;1242;59732;-75
2023/12/30 03:22:13;;;;;;;43.50;28.50;;;;;;;-3.45;100.00;97518.89;110433;1241;59685;-75
2023/12/30 03:24:46;;;;;;;39.40;26.30;;;;;;;-3.44;100.00;97521.59;110392;1244;70713;-75
2023/12/30 03:27:22;;;;;;;76.10;44.00;;;;;;;-3.43;100.00;97520.05;110439;1241;69267;-75
2023/12/30 03:29:54;;;;;;;62.10;35.80;;;;;;;-3.42;100.00;97524.12;110415;1248;69263;-75
2023/12/30 03:32:27;;;;;;;53.20;31.60;;;;;;;-3.43;100.00;97524.80;110444;1242;59686;-75
2023/12/30 03:35:01;;;;;;;47.00;28.20;;;;;;;-3.44;100.00;97527.73;110528;1249;59636;-76
2023/12/30 03:37:37;;;;;;;48.30;27.00;;;;;;;-3.48;100.00;97535.28;110365;1243;71719;-76
2023/12/30 03:40:07;;;;;;;;;;;;;;;-3.51;100.00;97539.42;110431;1242;69196;-76
2023/12/30 03:42:39;;;;;;;42.70;25.70;;;;;;;-3.53;100.00;97537.08;110353;1241;68357;-75
2023/12/30 03:45:13;;;;;;;39.40;24.50;;;;;;;-3.56;100.00;97526.55;110354;1242;59741;-74
2023/12/30 03:47:49;;;;;;;43.00;25.30;;;;;;;-3.55;100.00;97521.95;110375;1241;59741;-74
2023/12/30 03:50:22;;;;;;;38.00;22.60;;;;;;;-3.54;100.00;97523.80;110465;1242;70628;-74
2023/12/30 03:52:54;;;;;;;40.90;24.70;;;;;;;-3.51;100.00;97525.29;110382;1243;69116;-74
2023/12/30 03:55:28;;;;;;;38.70;24.80;;;;;;;-3.49;100.00;97527.14;110307;1243;69509;-75
2023/12/30 03:58:04;;;;;;;48.50;30.70;;;;;;;-3.50;100.00;97528.52;110366;1241;59714;-75
2023/12/30 04:00:37;;;;;;;43.50;27.60;;;;;;;-3.52;100.00;97531.44;110353;1241;59655;-75
2023/12/30 04:03:08;;;;;;;46.10;29.00;;;;;;;-3.54;100.00;97528.75;110359;1242;71137;-75
2023/12/30 04:05:41;;;;;;;50.00;29.10;;;;;;;-3.57;100.00;97532.54;110517;1242;69279;-75
2023/12/30 04:08:11;;;;;;;55.50;32.90;;;;;;;-3.60;100.00;97535.64;110385;1244;68297;-75
2023/12/30 04:10:42;;;;;;;53.60;31.90;;;;;;;-3.63;100.00;97534.49;110357;1238;59655;-75
2023/12/30 04:13:13;;;;;;;48.70;29.40;;;;;;;-3.64;100.00;97537.25;110401;1239;59630;-76
2023/12/30 04:15:46;;;;;;;45.30;26.00;;;;;;;-3.66;100.00;97543.73;110384;1243;71383;-75
2023/12/30 04:18:19;;;;;;;52.10;30.40;;;;;;;-3.67;100.00;97548.34;110192;1242;68355;-75
2023/12/30 04:20:52;;;;;;;48.80;30.00;;;;;;;-3.67;100.00;97543.58;110337;1242;68321;-75
2023/12/30 04:23:27;;;;;;;49.10;30.60;;;;;;;-3.67;100.00;97539.66;110369;1244;59740;-76
2023/12/30 04:25:57;;;;;;;;;;;;;;;-3.67;100.00;97537.77;110331;1242;59684;-76
2023/12/30 04:28:31;;;;;;;42.50;28.30;;;;;;;-3.68;100.00;97541.56;110418;1242;71410;-75
2023/12/30 04:31:02;;;;;;;49.90;29.30;;;;;;;-3.70;100.00;97541.05;110442;1244;69256;-75
2023/12/30 04:33:34;;;;;;;59.50;34.20;;;;;;;-3.70;100.00;97541.05;110454;1242;69163;-75
2023/12/30 04:36:05;;;;;;;47.60;29.10;;;;;;;-3.68;100.00;97538.15;110327;1243;59665;-75
2023/12/30 04:38:38;;;;;;;53.10;30.10;;;;;;;-3.66;100.00;97536.58;110384;1241;59717;-74
2023/12/30 04:41:08;;;;;;;58.60;35.40;;;;;;;-3.63;100.00;97538.91;110312;1242;71222;-76
2023/12/30 04:43:40;;;;;;;64.70;37.70;;;;;;;-3.61;100.00;97538.20;110353;1240;69682;-75
2023/12/30 04:46:12;;;;;;;57.50;37.30;;;;;;;-3.60;100.00;97533.77;110345;1241;68313;-75
2023/12/30 04:48:43;;;;;;;65.50;38.30;;;;;;;-3.61;100.00;97536.32;110327;1241;59711;-75
2023/12/30 04:51:13;;;;;;;56.10;34.50;;;;;;;-3.58;100.00;97537.33;110397;1242;59678;-75
2023/12/30 04:53:44;;;;;;;58.80;32.90;;;;;;;-3.56;100.00;97535.59;110373;1241;71416;-75
2023/12/30 04:56:16;;;;;;;59.10;34.70;;;;;;;-3.56;100.00;97538.13;110330;1242;69700;-75
2023/12/30 04:58:48;;;;;;;54.40;33.30;;;;;;;-3.54;100.00;97538.98;110403;1249;69316;-74
2023/12/30 05:01:20;;;;;;;56.90;33.20;;;;;;;-3.53;100.00;97540.48;110309;1242;59699;-74
2023/12/30 05:03:51;;;;;;;58.80;34.70;;;;;;;-3.51;100.00;97546.59;110444;1241;59740;-75
2023/12/30 05:06:25;;;;;;;95.80;49.40;;;;;;;-3.54;100.00;97548.16;110411;1242;70932;-75
2023/12/30 05:08:56;;;;;;;100.00;49.10;;;;;;;-3.63;100.00;97547.61;110425;1241;69030;-76
2023/12/30 05:11:26;;;;;;;92.70;46.70;;;;;;;-3.75;100.00;97549.13;110337;1241;68217;-75
2023/12/30 05:13:59;;;;;;;70.30;36.60;;;;;;;-3.84;100.00;97551.13;110394;1239;59672;-75
2023/12/30 05:16:29;;;;;;;68.20;39.00;;;;;;;-3.88;100.00;97552.90;110435;1241;59614;-75
2023/12/30 05:18:59;;;;;;;66.60;38.60;;;;;;;-3.89;100.00;97556.64;110438;1241;71314;-75
2023/12/30 05:21:29;;;;;;;64.90;34.50;;;;;;;-3.88;100.00;97554.77;110488;1242;69059;-75
2023/12/30 05:24:00;;;;;;;63.10;34.90;;;;;;;-3.87;100.00;97553.75;110407;1243;69340;-75
2023/12/30 05:26:30;;;;;;;;;;;;;;;-3.86;100.00;97554.06;110370;1241;59732;-75
2023/12/30 05:29:00;;;;;;;59.80;31.30;;;;;;;-3.87;100.00;97552.55;110405;1241;59624;-75
2023/12/30 05:31:31;;;;;;;56.30;30.20;;;;;;;-3.87;100.00;97548.64;110376;1241;71517;-75
2023/12/30 05:34:01;;;;;;;;;;;;;;;-3.85;100.00;97545.86;110408;1241;68820;-75
2023/12/30 05:36:30;;;;;;;44.70;25.50;;;;;;;-3.82;100.00;97544.83;110344;1242;69247;-75
2023/12/30 05:39:01;;;;;;;45.90;27.80;;;;;;;-3.81;100.00;97547.86;110416;1242;59721;-75
2023/12/30 05:41:33;;;;;;;44.50;26.00;;;;;;;-3.80;100.00;97555.52;110351;1243;60037;-75
2023/12/30 05:44:05;;;;;;;49.90;30.00;;;;;;;-3.79;100.00;97561.98;110358;1239;70718;-75
2023/12/30 05:46:36;;;;;;;47.20;28.70;;;;;;;-3.76;100.00;97568.58;110414;1240;67494;-75
2023/12/30 05:49:07;;;;;;;48.40;28.60;;;;;;;-3.74;100.00;97570.25;110378;1244;68664;-75
2023/12/30 05:51:42;;;;;;;47.20;26.80;;;;;;;-3.71;100.00;97565.61;110430;1239;59689;-75
2023/12/30 05:54:13;;;;;;;46.70;27.10;;;;;;;-3.69;100.00;97572.73;110382;1241;59802;-75
2023/12/30 05:56:43;;;;;;;54.00;31.00;;;;;;;-3.69;100.00;97571.38;110367;1241;71389;-75
2023/12/30 05:59:13;;;;;;;58.80;34.60;;;;;;;-3.71;100.00;97577.18;110347;1242;69053;-75
2023/12/30 06:01:46;;;;;;;45.70;27.60;;;;;;;-3.73;100.00;97579.95;110319;1241;69169;-75
2023/12/30 06:04:16;;;;;;;44.60;25.90;;;;;;;-3.74;100.00;97581.48;110366;1242;60190;-75
2023/12/30 06:06:46;;;;;;;47.10;26.90;;;;;;;-3.71;100.00;97584.85;110400;1241;59978;-75
2023/12/30 06:09:16;;;;;;;55.00;29.80;;;;;;;-3.71;100.00;97592.17;110402;1242;71264;-75
2023/12/30 06:11:48;;;;;;;43.30;25.40;;;;;;;-3.69;100.00;97590.96;110415;1242;68466;-75
2023/12/30 06:14:18;;;;;;;39.70;24.90;;;;;;;-3.64;100.00;97594.80;110429;1248;69139;-76
2023/12/30 06:16:48;;;;;;;41.10;23.60;;;;;;;-3.61;100.00;97591.70;110528;1242;59705;-76
2023/12/30 06:19:18;;;;;;;44.80;26.30;;;;;;;-3.57;100.00;97590.80;110365;1241;59749;-76
2023/12/30 06:21:48;;;;;;;44.10;27.10;;;;;;;-3.52;100.00;97595.85;110396;1243;71887;-76
2023/12/30 06:24:18;;;;;;;37.00;24.60;;;;;;;-3.49;100.00;97595.80;110372;1241;68487;-76
2023/12/30 06:26:49;;;;;;;45.00;27.20;;;;;;;-3.46;100.00;97595.59;110366;1241;69360;-76
2023/12/30 06:29:21;;;;;;;46.80;28.90;;;;;;;-3.44;100.00;97598.98;110319;1238;59730;-75
2023/12/30 06:31:51;;;;;;;55.20;30.30;;;;;;;-3.41;100.00;97600.63;110354;1241;59657;-76
2023/12/30 06:34:21;;;;;;;47.90;29.10;;;;;;;-3.39;100.00;97603.49;110367;1239;71395;-77
2023/12/30 06:36:51;;;;;;;44.60;27.90;;;;;;;-3.33;100.00;97610.73;110364;1241;68697;-77
2023/12/30 06:39:20;;;;;;;55.60;30.10;;;;;;;-3.29;100.00;97615.28;110365;1241;68527;-77
2023/12/30 06:41:50;;;;;;;48.90;28.00;;;;;;;-3.33;100.00;97617.56;110537;1241;59807;-75
2023/12/30 06:44:20;;;;;;;46.80;26.40;;;;;;;-3.35;100.00;97616.73;110384;1242;59732;-74
2023/12/30 06:46:49;;;;;;;41.10;24.70;;;;;;;-3.33;100.00;97615.85;110365;1239;71812;-75
2023/12/30 06:49:19;;;;;;;43.10;25.10;;;;;;;-3.32;100.00;97620.61;110381;1238;67717;-75
2023/12/30 06:51:48;;;;;;;45.50;26.40;;;;;;;-3.27;100.00;97618.83;110361;1242;69301;-75
2023/12/30 06:54:18;;;;;;;43.60;25.50;;;;;;;-3.27;100.00;97617.96;110379;1241;59733;-75
2023/12/30 06:56:49;;;;;;;36.00;24.80;;;;;;;-3.27;100.00;97618.33;110415;1241;60059;-75
2023/12/30 06:59:19;;;;;;;48.50;27.30;;;;;;;-3.24;100.00;97617.09;110375;1241;71366;-74
2023/12/30 07:01:49;;;;;;;43.60;28.00;;;;;;;-3.21;100.00;97612.95;110442;1241;69212;-75
2023/12/30 07:04:18;;;;;;;49.50;29.70;;;;;;;-3.14;100.00;97614.38;110432;1242;69345;-75
2023/12/30 07:06:49;;;;;;;50.90;28.80;;;;;;;-3.15;100.00;97617.98;110441;1239;59693;-77
2023/12/30 07:09:18;;;;;;;48.40;29.70;;;;;;;-3.09;100.00;97627.60;110460;1241;59823;-74
2023/12/30 07:11:49;;;;;;;39.60;25.40;;;;;;;-2.98;100.00;97635.80;110564;1241;70679;-77
2023/12/30 07:14:18;;;;;;;41.70;28.00;;;;;;;-2.91;100.00;97636.36;110739;1242;68485;-77
2023/12/30 07:16:49;;;;;;;47.40;28.70;;;;;;;-2.86;100.00;97633.89;110685;1241;69611;-77
2023/12/30 07:19:18;;;;;;;47.40;28.40;;;;;;;-2.78;100.00;97633.25;110687;1248;59658;-77
2023/12/30 07:21:48;;;;;;;51.40;31.40;;;;;;;-2.67;100.00;97632.56;110705;1241;59750;-77
2023/12/30 07:24:18;;;;;;;49.70;29.50;;;;;;;-2.68;100.00;97637.53;110506;1241;70589;-78
2023/12/30 07:26:47;;;;;;;65.50;32.00;;;;;;;-2.62;100.00;97629.58;110653;1241;69820;-76
2023/12/30 07:29:17;;;;;;;44.70;27.50;;;;;;;-2.57;100.00;97625.21;110556;1243;69847;-74
2023/12/30 07:31:46;;;;;;;62.40;33.60;;;;;;;-2.48;100.00;97624.55;110592;1241;59657;-75
2023/12/30 07:34:17;;;;;;;47.40;27.30;;;;;;;-2.44;100.00;97627.56;110435;1243;59685;-76
2023/12/30 07:36:48;;;;;;;50.20;28.60;;;;;;;-2.39;100.00;97626.10;110429;1242;71341;-75
2023/12/30 07:39:17;;;;;;;44.60;26.50;;;;;;;-2.26;100.00;97630.48;110406;1241;69147;-74
2023/12/30 07:41:48;;;;;;;41.40;25.80;;;;;;;-2.12;100.00;97631.07;110445;1242;69087;-75
2023/12/30 07:44:17;;;;;;;45.90;28.80;;;;;;;-2.02;100.00;97629.00;110544;1241;59705;-74
2023/12/30 07:46:47;;;;;;;;;;;;;;;-1.93;100.00;97634.14;110456;1241;59708;-74
2023/12/30 07:49:17;;;;;;;43.30;25.90;;;;;;;-1.79;100.00;97638.28;110405;1240;72335;-74
2023/12/30 07:51:46;;;;;;;;;;;;;;;-1.65;100.00;97638.69;110397;1239;70164;-74
2023/12/30 07:54:16;;;;;;;63.40;36.10;;;;;;;-1.51;100.00;97642.85;110386;1241;68647;-75
2023/12/30 07:56:46;;;;;;;49.60;29.80;;;;;;;-1.23;100.00;97644.98;110394;1241;59718;-75
2023/12/30 07:59:15;;;;;;;40.20;25.70;;;;;;;-0.96;100.00;97650.00;110369;1242;59701;-76
2023/12/30 08:01:45;;;;;;;39.70;27.00;;;;;;;-0.75;100.00;97650.38;110463;1242;71340;-75
2023/12/30 08:04:14;;;;;;;;;;;;;;;-0.48;100.00;97653.81;110467;1241;68474;-75
2023/12/30 08:06:44;;;;;;;50.60;28.90;;;;;;;-0.31;100.00;97663.15;110406;1241;69841;-76
2023/12/30 08:09:13;;;;;;;42.10;26.50;;;;;;;-0.33;100.00;97666.28;110366;1241;59667;-75
2023/12/30 08:11:43;;;;;;;75.60;40.60;;;;;;;-0.33;100.00;97664.06;110422;1241;60080;-75
2023/12/30 08:14:26;;;;;;;60.30;36.50;;;;;;;-0.23;100.00;97666.20;110439;1241;71984;-74
2023/12/30 08:16:56;;;;;;;70.00;33.10;;;;;;;-0.09;100.00;97666.86;110391;1242;70201;-74
2023/12/30 08:19:25;;;;;;;45.20;28.80;;;;;;;-0.10;100.00;97664.15;110451;1241;69925;-74
2023/12/30 08:21:55;;;;;;;47.60;29.70;;;;;;;0.00;100.00;97663.55;110380;1241;59742;-74
2023/12/30 08:24:28;;;;;;;63.40;37.30;;;;;;;0.12;100.00;97666.33;110385;1241;59680;-74
2023/12/30 08:26:57;;;;;;;59.60;35.70;;;;;;;0.10;100.00;97666.71;110395;1240;70610;-75
2023/12/30 08:29:27;;;;;;;61.00;34.40;;;;;;;0.18;100.00;97673.18;110392;1242;69175;-75
2023/12/30 08:31:56;;;;;;;55.30;35.80;;;;;;;0.23;100.00;97671.16;110443;1241;68414;-77
2023/12/30 08:34:27;;;;;;;54.20;35.10;;;;;;;0.44;100.00;97664.06;110502;1240;59810;-78
2023/12/30 08:36:57;;;;;;;49.60;31.60;;;;;;;0.65;100.00;97664.65;110349;1249;60117;-76
2023/12/30 08:39:26;;;;;;;59.40;35.40;;;;;;;0.58;100.00;97669.84;110293;1240;71885;-76
2023/12/30 08:41:55;;;;;;;48.50;33.70;;;;;;;0.59;100.00;97673.39;110379;1241;68246;-77
2023/12/30 08:44:26;;;;;;;55.30;34.90;;;;;;;0.55;100.00;97675.25;110428;1241;69330;-77
2023/12/30 08:46:56;;;;;;;58.50;37.40;;;;;;;0.59;100.00;97670.66;110454;1240;59694;-77
2023/12/30 08:49:25;;;;;;;58.80;38.30;;;;;;;0.70;100.00;97675.31;110402;1243;59689;-77
2023/12/30 08:51:55;;;;;;;55.70;33.10;;;;;;;0.76;100.00;97674.28;110407;1241;71423;-77
2023/12/30 08:54:25;;;;;;;58.30;35.90;;;;;;;0.93;100.00;97670.16;110399;1241;69828;-77
2023/12/30 08:56:54;;;;;;;50.20;32.30;;;;;;;1.16;100.00;97665.17;110362;1242;68393;-77
2023/12/30 08:59:24;;;;;;;43.70;30.20;;;;;;;1.27;100.00;97657.78;110413;1238;59692;-77
2023/12/30 09:01:54;;;;;;;50.70;30.70;;;;;;;1.55;100.00;97652.08;110370;1241;59645;-77
2023/12/30 09:04:24;;;;;;;52.70;34.60;;;;;;;1.78;100.00;97639.27;110414;1238;72186;-77
2023/12/30 09:06:53;;;;;;;60.20;36.90;;;;;;;1.88;100.00;97631.39;110500;1241;68479;-77
2023/12/30 09:09:23;;;;;;;58.00;38.40;;;;;;;1.96;100.00;97623.02;110370;1238;68807;-77
2023/12/30 09:11:52;;;;;;;52.60;34.50;;;;;;;2.05;100.00;97619.79;110338;1241;59734;-77
2023/12/30 09:14:22;;;;;;;47.70;33.50;;;;;;;2.16;100.00;97619.73;110374;1241;59708;-77
2023/12/30 09:16:52;;;;;;;44.80;28.80;;;;;;;2.32;100.00;97612.95;110523;1241;71964;-78
2023/12/30 09:19:21;;;;;;;56.20;36.90;;;;;;;2.56;100.00;97608.96;110495;1241;69211;-77
2023/12/30 09:21:51;;;;;;;52.20;35.60;;;;;;;3.02;100.00;97599.79;110501;1241;68617;-77
2023/12/30 09:24:20;;;;;;;61.50;39.90;;;;;;;3.65;100.00;97585.35;110351;1248;59672;-77
2023/12/30 09:26:49;;;;;;;43.80;29.70;;;;;;;4.05;100.00;97584.65;110410;1238;59602;-78
2023/12/30 09:29:18;;;;;;;45.40;31.50;;;;;;;4.24;100.00;97587.10;110360;1243;71098;-78
2023/12/30 09:31:48;;;;;;;35.60;25.90;;;;;;;4.49;100.00;97587.52;110381;1241;69809;-78
2023/12/30 09:34:17;;;;;;;33.20;22.90;;;;;;;4.81;100.00;97584.69;110361;1241;69148;-77
2023/12/30 09:37:02;;;;;;;39.80;28.90;;;;;;;5.05;100.00;97584.21;110326;1243;59696;-79
2023/12/30 09:39:31;;;;;;;39.90;29.60;;;;;;;5.11;100.00;97587.21;110387;1242;59644;-77
2023/12/30 09:42:01;;;;;;;39.60;30.40;;;;;;;5.06;100.00;97586.23;110506;1248;71017;-77
2023/12/30 09:44:32;;;;;;;43.60;31.50;;;;;;;4.73;100.00;97587.79;110468;1242;69836;-78
2023/12/30 09:47:07;;;;;;;37.60;28.10;;;;;;;4.84;100.00;97583.13;110429;1238;69360;-77
2023/12/30 09:49:37;;;;;;;38.40;29.30;;;;;;;4.96;100.00;97577.56;110533;1238;59689;-77
2023/12/30 09:52:06;;;;;;;41.60;29.80;;;;;;;5.23;100.00;97573.68;110421;1241;59672;-77
2023/12/30 09:54:38;;;;;;;51.50;37.60;;;;;;;5.65;100.00;97570.52;110437;1238;70567;-78
2023/12/30 09:57:17;;;;;;;48.80;36.20;;;;;;;5.97;100.00;97567.69;110357;1241;69778;-78
2023/12/30 09:59:47;;;;;;;48.30;33.70;;;;;;;6.41;100.00;97572.66;110536;1241;69888;-78
2023/12/30 10:02:16;;;;;;;47.20;34.70;;;;;;;6.82;98.43;97571.12;110350;1238;59814;-78
2023/12/30 10:04:49;;;;;;;43.60;32.40;;;;;;;7.11;97.62;97566.57;110481;1241;59692;-77
2023/12/30 10:07:19;;;;;;;49.10;35.60;;;;;;;7.30;88.84;97559.98;110458;1241;71339;-80
2023/12/30 10:09:50;;;;;;;45.30;33.00;;;;;;;7.93;91.17;97563.40;110375;1242;69880;-80
2023/12/30 10:12:19;;;;;;;44.80;34.40;;;;;;;7.91;86.49;97565.23;110423;1241;68893;-80
2023/12/30 10:14:48;;;;;;;42.20;33.20;;;;;;;8.31;85.74;97564.91;110359;1242;59737;-80
2023/12/30 10:17:18;;;;;;;37.40;28.90;;;;;;;8.91;81.83;97566.05;110463;1240;59631;-78
2023/12/30 10:19:47;;;;;;;32.40;28.10;;;;;;;9.47;80.41;97566.23;110578;1241;69573;-79
2023/12/30 10:22:17;;;;;;;30.10;25.70;;;;;;;10.34;80.64;97562.11;110463;1238;69315;-79
2023/12/30 10:24:47;;;;;;;34.30;29.00;;;;;;;11.09;76.69;97557.53;110333;1242;69431;-80
2023/12/30 10:27:17;;;;;;;29.70;24.10;;;;;;;11.77;78.55;97556.00;110420;1241;59737;-81
2023/12/30 10:29:53;;;;;;;;;;;;;;;12.42;74.39;97554.68;110343;1238;59685;-80
2023/12/30 10:32:29;;;;;;;38.20;30.60;;;;;;;13.02;67.99;97551.02;110518;1242;71956;-78
2023/12/30 10:34:58;;;;;;;;;;;;;;;12.73;65.49;97552.02;110522;1241;69770;-80
2023/12/30 10:37:29;;;;;;;39.70;34.10;;;;;;;12.70;63.02;97545.64;110524;1238;69886;-78
2023/12/30 10:40:00;;;;;;;29.60;25.10;;;;;;;12.96;63.91;97548.01;110511;1238;60066;-80
2023/12/30 10:42:30;;;;;;;33.10;28.90;;;;;;;12.11;63.61;97544.86;110457;1242;59641;-77
2023/12/30 10:45:03;;;;;;;31.10;26.80;;;;;;;13.00;61.99;97542.09;110461;1242;72454;-79
2023/12/30 10:47:40;;;;;;;31.50;27.40;;;;;;;12.95;62.51;97536.15;110550;1241;68792;-79
2023/12/30 10:50:10;;;;;;;42.90;38.10;;;;;;;13.02;62.20;97533.54;110384;1238;68339;-78
2023/12/30 10:52:47;;;;;;;47.30;42.00;;;;;;;12.67;59.33;97530.55;110436;1238;59716;-78
2023/12/30 10:55:20;;;;;;;43.90;36.70;;;;;;;11.62;60.27;97526.24;110391;1241;59682;-77
2023/12/30 10:58:01;;;;;;;60.30;48.60;;;;;;;10.92;62.42;97531.90;110372;1241;71973;-77
2023/12/30 11:00:35;;;;;;;61.10;49.90;;;;;;;10.47;62.67;97530.59;110461;1238;68756;-78
2023/12/30 11:03:05;;;;;;;57.00;47.60;;;;;;;9.87;64.83;97531.73;110340;1238;68503;-78
2023/12/30 11:05:38;;;;;;;;;;;;;;;8.89;69.12;97535.06;109881;1239;707524;-78
2023/12/30 11:08:08;;;;;;;51.80;40.40;;;;;;;8.41;73.19;97537.08;110366;1242;59691;-78
2023/12/30 11:10:37;;;;;;;40.40;33.20;;;;;;;8.34;75.01;97539.40;110399;1241;71233;-79
2023/12/30 11:13:08;;;;;;;32.30;27.00;;;;;;;8.00;78.91;97532.79;110474;1241;69221;-79
2023/12/30 11:15:41;;;;;;;26.50;22.50;;;;;;;8.61;79.27;97522.11;110259;1239;67740;-80
2023/12/30 11:18:13;;;;;;;22.90;19.50;;;;;;;9.02;74.83;97513.35;110378;1238;59749;-79
2023/12/30 11:20:48;;;;;;;26.60;21.30;;;;;;;9.28;73.88;97510.66;110379;1241;59691;-78
2023/12/30 11:23:19;;;;;;;39.30;32.30;;;;;;;9.60;72.12;97507.83;110405;1241;71980;-79
2023/12/30 11:25:51;;;;;;;44.80;36.10;;;;;;;9.97;71.94;97513.17;110393;1242;69757;-78